Time,TemperatureF,DewpointF,PressureIn,WindDirection,WindDirectionDegrees,WindSpeedMPH,WindSpeedGustMPH,Humidity,HourlyPrecipIn,Conditions,Clouds,dailyrainin,SoftwareType,DateUTC
2013-06-17 06:12:00,61.2,44.9,29.44,SE,142,0.0,0.0,55,0.00,,CLR,0.00,VWS V14.01,2013-06-17 10:12:00,
2013-06-17 06:17:00,61.3,45.0,29.44,SE,142,0.0,0.0,55,0.00,,CLR,0.00,VWS V14.01,2013-06-17 10:17:00,
2013-06-17 06:22:00,61.7,45.9,29.44,SE,142,0.0,0.0,56,0.00,,CLR,0.00,VWS V14.01,2013-06-17 10:22:00,
2013-06-17 06:27:00,61.7,45.9,29.44,SE,142,0.0,0.0,56,0.00,,CLR,0.00,VWS V14.01,2013-06-17 10:27:00,
2013-06-17 06:32:00,61.9,46.5,29.44,SE,142,0.0,0.0,57,0.00,,CLR,0.00,VWS V14.01,2013-06-17 10:32:00,
2013-06-17 06:37:00,62.1,46.7,29.44,SE,142,0.0,0.0,57,0.00,,CLR,0.00,VWS V14.01,2013-06-17 10:37:00,
2013-06-17 06:42:00,62.2,47.3,29.44,SE,142,0.0,0.0,58,0.00,,CLR,0.00,VWS V14.01,2013-06-17 10:42:00,
2013-06-17 06:47:00,62.4,47.5,29.44,SE,142,0.0,0.0,58,0.00,,CLR,0.00,VWS V14.01,2013-06-17 10:47:00,
2013-06-17 06:53:00,62.6,47.6,29.44,SE,142,0.0,0.0,58,0.00,,CLR,0.00,VWS V14.01,2013-06-17 10:53:00,
2013-06-17 06:58:00,62.8,47.3,29.44,SE,142,0.0,0.0,57,0.00,,CLR,0.00,VWS V14.01,2013-06-17 10:58:00,
2013-06-17 07:03:00,63.0,48.0,29.44,SE,142,0.0,0.0,58,0.00,,OVC110,0.00,VWS V14.01,2013-06-17 11:03:00,
2013-06-17 07:08:00,63.0,48.0,29.44,SE,142,0.0,0.0,58,0.00,,OVC110,0.00,VWS V14.01,2013-06-17 11:08:00,
2013-06-17 07:13:00,63.1,48.6,29.44,SE,142,0.0,0.0,59,0.00,,OVC110,0.00,VWS V14.01,2013-06-17 11:13:00,
2013-06-17 07:18:00,63.3,48.8,29.44,SE,142,0.0,0.0,59,0.00,,OVC110,0.00,VWS V14.01,2013-06-17 11:18:00,
2013-06-17 07:23:00,63.5,49.4,29.44,SE,142,0.0,0.0,60,0.00,,OVC110,0.00,VWS V14.01,2013-06-17 11:23:00,
2013-06-17 07:28:00,63.9,50.2,29.44,SE,142,0.0,0.0,61,0.00,,OVC110,0.00,VWS V14.01,2013-06-17 11:28:00,
2013-06-17 07:33:00,64.0,50.3,29.44,SE,142,0.0,0.0,61,0.00,,OVC110,0.00,VWS V14.01,2013-06-17 11:33:00,
2013-06-17 07:38:00,64.2,50.9,29.44,SE,142,0.0,0.0,62,0.00,,OVC110,0.00,VWS V14.01,2013-06-17 11:38:00,
2013-06-17 07:43:00,64.4,51.1,29.44,SE,142,0.0,0.0,62,0.00,,OVC110,0.00,VWS V14.01,2013-06-17 11:43:00,
2013-06-17 07:48:00,64.8,51.9,29.44,SE,142,0.0,0.0,63,0.00,,OVC110,0.00,VWS V14.01,2013-06-17 11:48:00,
2013-06-17 07:53:00,64.9,52.1,29.47,SE,142,0.0,0.0,63,0.00,,OVC110,0.00,VWS V14.01,2013-06-17 11:53:00,
2013-06-17 07:58:00,65.1,52.7,29.47,SE,142,0.0,0.0,64,0.00,,OVC110,0.00,VWS V14.01,2013-06-17 11:58:00,
2013-06-17 08:03:00,65.5,53.0,29.47,SE,142,0.0,0.0,64,0.00,,FEW100,0.00,VWS V14.01,2013-06-17 12:03:00,
2013-06-17 08:08:00,65.7,53.6,29.47,SE,142,0.0,0.0,65,0.00,,FEW100,0.00,VWS V14.01,2013-06-17 12:08:00,
2013-06-17 08:13:00,66.0,53.9,29.47,SE,142,0.0,0.0,65,0.00,,FEW100,0.00,VWS V14.01,2013-06-17 12:13:00,
2013-06-17 08:18:00,66.4,54.3,29.47,SE,142,0.0,0.0,65,0.00,,FEW100,0.00,VWS V14.01,2013-06-17 12:18:00,
2013-06-17 08:23:00,66.7,54.6,29.44,SE,142,0.0,0.0,65,0.00,,FEW100,0.00,VWS V14.01,2013-06-17 12:23:00,
2013-06-17 08:28:00,67.1,55.0,29.44,SE,142,0.0,0.0,65,0.00,,FEW100,0.00,VWS V14.01,2013-06-17 12:28:00,
2013-06-17 08:33:00,67.6,55.0,29.44,SE,142,0.0,0.0,64,0.00,,FEW100,0.00,VWS V14.01,2013-06-17 12:33:00,
2013-06-17 08:38:00,68.2,55.5,29.44,SE,142,0.0,0.0,64,0.00,,FEW100,0.00,VWS V14.01,2013-06-17 12:38:00,
2013-06-17 08:43:00,68.7,53.8,29.44,North,3,0.0,4.9,59,0.00,,FEW100,0.00,VWS V14.01,2013-06-17 12:43:00,
2013-06-17 08:48:00,70.0,52.1,29.44,North,3,0.0,0.0,53,0.00,,FEW100,0.00,VWS V14.01,2013-06-17 12:48:00,
2013-06-17 08:53:00,70.9,50.8,29.44,SSE,148,0.0,0.0,49,0.00,,FEW100,0.00,VWS V14.01,2013-06-17 12:53:00,
2013-06-17 08:58:00,71.6,46.7,29.44,SSE,151,0.0,0.0,41,0.00,,FEW100,0.00,VWS V14.01,2013-06-17 12:58:00,
2013-06-17 09:03:00,72.5,43.3,29.44,NNW,331,0.0,0.0,35,0.00,,CLR,0.00,VWS V14.01,2013-06-17 13:03:00,
2013-06-17 09:08:00,73.4,41.8,29.44,ESE,121,0.0,0.0,32,0.00,,CLR,0.00,VWS V14.01,2013-06-17 13:08:00,
2013-06-17 09:13:00,74.3,36.2,29.44,SE,135,0.0,0.0,25,0.00,,CLR,0.00,VWS V14.01,2013-06-17 13:13:00,
2013-06-17 09:18:00,74.8,34.6,29.44,WSW,237,3.6,3.6,23,0.00,,CLR,0.00,VWS V14.01,2013-06-17 13:18:00,
2013-06-17 09:23:00,75.4,33.9,29.44,East,92,0.0,0.0,22,0.00,,CLR,0.00,VWS V14.01,2013-06-17 13:23:00,
2013-06-17 09:28:00,75.7,34.2,29.44,NE,54,0.0,0.0,22,0.00,,CLR,0.00,VWS V14.01,2013-06-17 13:28:00,
2013-06-17 09:33:00,76.1,33.4,29.44,ESE,102,4.0,4.0,21,0.00,,CLR,0.00,VWS V14.01,2013-06-17 13:33:00,
2013-06-17 09:38:00,76.3,33.5,29.44,ESE,119,0.0,2.2,21,0.00,,CLR,0.00,VWS V14.01,2013-06-17 13:38:00,
2013-06-17 09:43:00,77.0,32.9,29.44,SE,141,0.0,0.0,20,0.00,,CLR,0.00,VWS V14.01,2013-06-17 13:43:00,
2013-06-17 09:48:00,77.9,33.6,29.44,SE,145,0.0,0.0,20,0.00,,CLR,0.00,VWS V14.01,2013-06-17 13:48:00,
2013-06-17 09:53:00,78.3,31.3,29.44,SE,139,3.1,5.8,18,0.00,,CLR,0.00,VWS V14.01,2013-06-17 13:53:00,
2013-06-17 09:58:00,78.3,31.3,29.44,SE,136,0.0,0.0,18,0.00,,CLR,0.00,VWS V14.01,2013-06-17 13:58:00,
2013-06-17 10:03:00,79.3,30.8,29.44,SE,135,0.0,0.0,17,0.00,,CLR,0.00,VWS V14.01,2013-06-17 14:03:00,
2013-06-17 10:08:00,79.7,28.0,29.44,ENE,69,2.2,3.1,15,0.00,,CLR,0.00,VWS V14.01,2013-06-17 14:08:00,
2013-06-17 10:13:00,80.1,28.3,29.44,NNW,335,0.0,0.0,15,0.00,,CLR,0.00,VWS V14.01,2013-06-17 14:13:00,
2013-06-17 10:18:00,81.0,27.3,29.44,NNW,343,0.0,2.2,14,0.00,,CLR,0.00,VWS V14.01,2013-06-17 14:18:00,
2013-06-17 10:23:00,82.0,28.2,29.44,NW,305,4.9,4.9,14,0.00,,CLR,0.00,VWS V14.01,2013-06-17 14:23:00,
2013-06-17 10:28:00,82.2,28.3,29.44,NNW,334,3.1,7.6,14,0.00,,CLR,0.00,VWS V14.01,2013-06-17 14:28:00,
2013-06-17 10:33:00,81.9,28.0,29.44,SE,142,4.0,8.1,14,0.00,,CLR,0.00,VWS V14.01,2013-06-17 14:33:00,
2013-06-17 10:38:00,81.9,28.0,29.44,East,83,0.0,3.6,14,0.00,,CLR,0.00,VWS V14.01,2013-06-17 14:38:00,
2013-06-17 10:43:00,82.4,28.5,29.44,ESE,111,2.7,3.1,14,0.00,,CLR,0.00,VWS V14.01,2013-06-17 14:43:00,
2013-06-17 10:48:00,82.4,28.5,29.44,NE,48,0.0,0.0,14,0.00,,CLR,0.00,VWS V14.01,2013-06-17 14:48:00,
2013-06-17 10:53:00,82.6,28.6,29.41,North,11,2.2,3.6,14,0.00,,CLR,0.00,VWS V14.01,2013-06-17 14:53:00,
2013-06-17 10:58:00,82.8,28.8,29.41,NE,47,3.1,3.6,14,0.00,,CLR,0.00,VWS V14.01,2013-06-17 14:58:00,
2013-06-17 11:03:00,82.9,28.9,29.41,NNW,342,2.7,3.6,14,0.00,,CLR,0.00,VWS V14.01,2013-06-17 15:03:00,
2013-06-17 11:08:00,82.9,28.9,29.41,SSE,149,0.0,3.6,14,0.00,,FEW034,0.00,VWS V14.01,2013-06-17 15:08:00,
2013-06-17 11:13:00,83.7,29.5,29.41,North,357,2.2,2.7,14,0.00,,FEW034,0.00,VWS V14.01,2013-06-17 15:13:00,
2013-06-17 11:18:00,83.7,29.5,29.41,ESE,110,0.0,4.9,14,0.00,,FEW034,0.00,VWS V14.01,2013-06-17 15:18:00,
2013-06-17 11:23:00,83.1,29.0,29.41,ESE,122,2.7,3.1,14,0.00,,FEW034,0.00,VWS V14.01,2013-06-17 15:23:00,
2013-06-17 11:28:00,82.9,28.9,29.41,ENE,76,0.0,3.1,14,0.00,,FEW034,0.00,VWS V14.01,2013-06-17 15:28:00,
2013-06-17 11:33:00,83.5,29.3,29.41,NW,313,2.2,5.8,14,0.00,,FEW034,0.00,VWS V14.01,2013-06-17 15:33:00,
2013-06-17 12:58:00,85.3,28.9,29.41,SSE,149,4.9,4.9,13,0.00,,FEW034,0.00,VWS V14.01,2013-06-17 16:58:00,
2013-06-17 13:03:00,85.6,25.2,29.41,ESE,119,3.1,5.4,11,0.00,,FEW050,0.00,VWS V14.01,2013-06-17 17:03:00,
2013-06-17 13:08:00,85.5,25.0,29.41,ENE,59,3.1,3.6,11,0.00,,FEW050,0.00,VWS V14.01,2013-06-17 17:08:00,
2013-06-17 13:13:00,85.5,25.0,29.41,NNE,12,2.7,6.3,11,0.00,,FEW050,0.00,VWS V14.01,2013-06-17 17:13:00,
2013-06-17 13:18:00,86.0,25.4,29.41,SE,125,7.6,7.6,11,0.00,,FEW050,0.00,VWS V14.01,2013-06-17 17:18:00,
2013-06-17 13:23:00,86.2,25.6,29.41,NNE,32,4.0,5.4,11,0.00,,FEW050,0.00,VWS V14.01,2013-06-17 17:23:00,
2013-06-17 13:28:00,86.4,25.7,29.41,NNE,22,2.7,5.4,11,0.00,,FEW050,0.00,VWS V14.01,2013-06-17 17:28:00,
2013-06-17 13:33:00,86.7,26.0,29.41,SSE,152,4.9,4.9,11,0.00,,FEW050,0.00,VWS V14.01,2013-06-17 17:33:00,
2013-06-17 13:38:00,86.5,25.9,29.41,NE,43,3.1,4.0,11,0.00,,FEW050,0.00,VWS V14.01,2013-06-17 17:38:00,
2013-06-17 13:43:00,86.7,26.0,29.41,NNE,13,2.2,3.6,11,0.00,,FEW050,0.00,VWS V14.01,2013-06-17 17:43:00,
2013-06-17 13:48:00,87.3,26.4,29.41,East,91,2.7,5.8,11,0.00,,FEW050,0.00,VWS V14.01,2013-06-17 17:48:00,
2013-06-17 13:53:00,88.0,31.0,29.41,NW,307,2.7,4.0,13,0.00,,FEW050,0.00,VWS V14.01,2013-06-17 17:53:00,
2013-06-17 13:58:00,87.8,30.9,29.41,ESE,113,0.0,3.6,13,0.00,,FEW050,0.00,VWS V14.01,2013-06-17 17:58:00,
2013-06-17 14:03:00,87.8,30.9,29.41,SE,140,3.1,5.8,13,0.00,,BKN095,0.00,VWS V14.01,2013-06-17 18:03:00,
2013-06-17 14:08:00,87.6,26.7,29.41,North,2,2.2,5.4,11,0.00,,BKN095,0.00,VWS V14.01,2013-06-17 18:08:00,
2013-06-17 14:13:00,87.1,26.3,29.41,NE,39,2.7,3.6,11,0.00,,BKN095,0.00,VWS V14.01,2013-06-17 18:13:00,
2013-06-17 14:18:00,86.2,25.6,29.41,ESE,119,0.0,5.4,11,0.00,,BKN095,0.00,VWS V14.01,2013-06-17 18:18:00,
2013-06-17 14:23:00,85.6,25.2,29.41,East,85,3.1,6.3,11,0.00,,BKN095,0.00,VWS V14.01,2013-06-17 18:23:00,
2013-06-17 14:28:00,85.8,25.3,29.41,SSE,149,4.0,5.8,11,0.00,,BKN095,0.00,VWS V14.01,2013-06-17 18:28:00,
2013-06-17 14:33:00,85.5,25.0,29.41,SE,142,3.6,3.6,11,0.00,,BKN095,0.00,VWS V14.01,2013-06-17 18:33:00,
2013-06-17 14:38:00,84.6,24.3,29.41,East,90,0.0,0.0,11,0.00,,BKN095,0.00,VWS V14.01,2013-06-17 18:38:00,
2013-06-17 14:43:00,84.2,24.0,29.41,SE,142,0.0,0.0,11,0.00,,BKN095,0.00,VWS V14.01,2013-06-17 18:43:00,
2013-06-17 14:48:00,83.8,23.8,29.41,SE,146,0.0,0.0,11,0.00,,BKN095,0.00,VWS V14.01,2013-06-17 18:48:00,
2013-06-17 14:53:00,83.5,23.5,29.38,SE,138,0.0,0.0,11,0.00,,BKN095,0.00,VWS V14.01,2013-06-17 18:53:00,
2013-06-17 14:58:00,83.7,23.6,29.38,ENE,76,0.0,2.7,11,0.00,,BKN095,0.00,VWS V14.01,2013-06-17 18:58:00,
2013-06-17 15:03:00,84.0,23.9,29.38,SE,130,3.6,3.6,11,0.00,,FEW060,0.00,VWS V14.01,2013-06-17 19:03:00,
2013-06-17 15:08:00,84.2,24.0,29.41,NNE,19,3.1,5.8,11,0.00,,FEW060,0.00,VWS V14.01,2013-06-17 19:08:00,
2013-06-17 15:13:00,84.0,23.9,29.41,SSE,148,9.6,9.6,11,0.00,,FEW060,0.00,VWS V14.01,2013-06-17 19:13:00,
2013-06-17 15:18:00,83.5,23.5,29.41,North,357,2.7,4.0,11,0.00,,FEW060,0.00,VWS V14.01,2013-06-17 19:18:00,
2013-06-17 15:23:00,83.5,23.5,29.41,ENE,70,3.1,4.9,11,0.00,,FEW060,0.00,VWS V14.01,2013-06-17 19:23:00,
2013-06-17 15:28:00,83.1,23.2,29.41,SE,135,2.2,2.7,11,0.00,,FEW060,0.00,VWS V14.01,2013-06-17 19:28:00,
2013-06-17 15:33:00,83.1,23.2,29.41,South,183,5.4,5.4,11,0.00,,FEW060,0.00,VWS V14.01,2013-06-17 19:33:00,
2013-06-17 15:38:00,83.3,23.4,29.38,East,92,3.1,4.9,11,0.00,,FEW060,0.00,VWS V14.01,2013-06-17 19:38:00,
2013-06-17 15:43:00,83.5,23.5,29.38,SE,136,4.0,4.0,11,0.00,,FEW060,0.00,VWS V14.01,2013-06-17 19:43:00,
2013-06-17 15:48:00,83.7,23.6,29.38,South,173,5.4,6.7,11,0.00,,FEW060,0.00,VWS V14.01,2013-06-17 19:48:00,
2013-06-17 15:53:00,83.5,23.5,29.38,East,93,3.1,4.0,11,0.00,,FEW060,0.00,VWS V14.01,2013-06-17 19:53:00,
2013-06-17 15:58:00,83.3,23.4,29.38,ENE,65,5.4,5.4,11,0.00,,FEW060,0.00,VWS V14.01,2013-06-17 19:58:00,
2013-06-17 16:03:00,83.5,23.5,29.38,SE,139,4.0,4.0,11,0.00,,CLR,0.00,VWS V14.01,2013-06-17 20:03:00,
2013-06-17 16:08:00,83.3,23.4,29.38,SSE,149,3.1,3.1,11,0.00,,CLR,0.00,VWS V14.01,2013-06-17 20:08:00,
2013-06-17 16:13:00,83.3,23.4,29.38,ESE,121,6.3,6.3,11,0.00,,CLR,0.00,VWS V14.01,2013-06-17 20:13:00,
2013-06-17 16:18:00,83.3,23.4,29.38,ENE,64,0.0,0.0,11,0.00,,CLR,0.00,VWS V14.01,2013-06-17 20:18:00,
2013-06-17 16:23:00,83.8,23.8,29.38,ENE,73,3.1,3.6,11,0.00,,CLR,0.00,VWS V14.01,2013-06-17 20:23:00,
2013-06-17 16:28:00,83.7,23.6,29.38,NNW,327,3.1,3.1,11,0.00,,CLR,0.00,VWS V14.01,2013-06-17 20:28:00,
2013-06-17 16:33:00,83.7,23.6,29.38,East,83,2.2,5.8,11,0.00,,CLR,0.00,VWS V14.01,2013-06-17 20:33:00,
2013-06-17 16:38:00,83.5,29.3,29.38,East,80,2.2,4.0,14,0.00,,CLR,0.00,VWS V14.01,2013-06-17 20:38:00,
2013-06-17 16:43:00,83.5,29.3,29.38,West,262,2.7,2.7,14,0.00,,CLR,0.00,VWS V14.01,2013-06-17 20:43:00,
2013-06-17 16:48:00,83.5,29.3,29.38,SSE,149,0.0,0.0,14,0.00,,CLR,0.00,VWS V14.01,2013-06-17 20:48:00,
2013-06-17 16:53:00,83.7,29.5,29.38,SSE,159,0.0,0.0,14,0.00,,CLR,0.00,VWS V14.01,2013-06-17 20:53:00,
2013-06-17 16:58:00,83.5,29.3,29.38,East,93,2.2,4.0,14,0.00,,CLR,0.00,VWS V14.01,2013-06-17 20:58:00,
2013-06-17 17:03:00,83.5,29.3,29.38,SE,136,2.7,6.3,14,0.00,,,0.00,VWS V14.01,2013-06-17 21:03:00,
2013-06-17 17:08:00,83.1,29.0,29.38,SE,141,3.6,8.3,14,0.00,,,0.00,VWS V14.01,2013-06-17 21:08:00,
2013-06-17 17:13:00,83.1,29.0,29.38,SE,126,4.9,4.9,14,0.00,,,0.00,VWS V14.01,2013-06-17 21:13:00,
2013-06-17 17:18:00,82.9,23.1,29.38,SE,145,3.6,3.6,11,0.00,,,0.00,VWS V14.01,2013-06-17 21:18:00,
2013-06-17 17:23:00,83.1,29.0,29.38,SSE,156,0.0,3.6,14,0.00,,,0.00,VWS V14.01,2013-06-17 21:23:00,
2013-06-17 17:28:00,83.1,23.2,29.38,SSE,151,5.4,6.3,11,0.00,,,0.00,VWS V14.01,2013-06-17 21:28:00,
2013-06-17 17:33:00,83.1,23.2,29.38,WNW,292,0.0,6.3,11,0.00,,,0.00,VWS V14.01,2013-06-17 21:33:00,
2013-06-17 17:38:00,83.1,23.2,29.38,ESE,119,0.0,3.6,11,0.00,,,0.00,VWS V14.01,2013-06-17 21:38:00,
2013-06-17 17:43:00,83.1,23.2,29.38,ESE,104,0.0,0.0,11,0.00,,,0.00,VWS V14.01,2013-06-17 21:43:00,
2013-06-17 17:48:00,83.1,23.2,29.38,WNW,287,0.0,0.0,11,0.00,,,0.00,VWS V14.01,2013-06-17 21:48:00,
2013-06-17 17:53:00,83.1,23.2,29.38,SE,139,5.8,8.3,11,0.00,,,0.00,VWS V14.01,2013-06-17 21:53:00,
2013-06-17 17:58:00,82.9,23.1,29.38,SSE,149,3.6,4.0,11,0.00,,,0.00,VWS V14.01,2013-06-17 21:58:00,
2013-06-17 18:03:00,82.9,23.1,29.38,SE,137,5.4,5.4,11,0.00,,CLR,0.00,VWS V14.01,2013-06-17 22:03:00,
2013-06-17 18:08:00,82.9,23.1,29.38,ESE,112,0.0,0.0,11,0.00,,CLR,0.00,VWS V14.01,2013-06-17 22:08:00,
2013-06-17 18:13:00,82.9,23.1,29.38,NNE,16,2.2,4.0,11,0.00,,CLR,0.00,VWS V14.01,2013-06-17 22:13:00,
2013-06-17 18:18:00,82.8,23.0,29.38,North,357,3.1,3.1,11,0.00,,CLR,0.00,VWS V14.01,2013-06-17 22:18:00,
2013-06-17 18:23:00,82.6,22.8,29.38,SE,141,0.0,6.3,11,0.00,,CLR,0.00,VWS V14.01,2013-06-17 22:23:00,
2013-06-17 18:28:00,82.6,22.8,29.38,SE,146,0.0,0.0,11,0.00,,CLR,0.00,VWS V14.01,2013-06-17 22:28:00,
2013-06-17 18:33:00,82.6,22.8,29.38,SE,135,0.0,0.0,11,0.00,,CLR,0.00,VWS V14.01,2013-06-17 22:33:00,
2013-06-17 18:38:00,82.4,22.7,29.38,SE,138,2.7,5.8,11,0.00,,CLR,0.00,VWS V14.01,2013-06-17 22:38:00,
2013-06-17 18:43:00,82.4,22.7,29.38,SSE,152,0.0,3.6,11,0.00,,CLR,0.00,VWS V14.01,2013-06-17 22:43:00,
2013-06-17 18:48:00,82.2,24.6,29.38,SSE,151,3.6,3.6,12,0.00,,CLR,0.00,VWS V14.01,2013-06-17 22:48:00,
2013-06-17 18:53:00,81.9,24.3,29.38,SSE,157,0.0,0.0,12,0.00,,CLR,0.00,VWS V14.01,2013-06-17 22:53:00,
2013-06-17 18:58:00,81.3,23.9,29.38,SSE,157,0.0,0.0,12,0.00,,CLR,0.00,VWS V14.01,2013-06-17 22:58:00,
2013-06-17 19:03:00,80.8,23.5,29.38,SSE,149,0.0,0.0,12,0.00,,CLR,0.00,VWS V14.01,2013-06-17 23:03:00,
2013-06-17 19:08:00,80.2,28.4,29.41,SSE,152,0.0,0.0,15,0.00,,CLR,0.00,VWS V14.01,2013-06-17 23:08:00,
2013-06-17 19:13:00,80.2,28.4,29.41,SE,133,0.0,0.0,15,0.00,,CLR,0.00,VWS V14.01,2013-06-17 23:13:00,
2013-06-17 19:18:00,80.1,28.3,29.41,SE,146,2.2,3.1,15,0.00,,CLR,0.00,VWS V14.01,2013-06-17 23:18:00,
2013-06-17 19:23:00,79.9,28.1,29.41,SE,144,0.0,0.0,15,0.00,,CLR,0.00,VWS V14.01,2013-06-17 23:23:00,
2013-06-17 19:28:00,79.7,28.0,29.41,SE,144,0.0,0.0,15,0.00,,CLR,0.00,VWS V14.01,2013-06-17 23:28:00,
2013-06-17 19:33:00,79.3,27.7,29.41,SE,144,0.0,0.0,15,0.00,,CLR,0.00,VWS V14.01,2013-06-17 23:33:00,
2013-06-17 19:38:00,78.8,27.3,29.41,SE,144,0.0,0.0,15,0.00,,CLR,0.00,VWS V14.01,2013-06-17 23:38:00,
2013-06-17 19:43:00,78.4,27.0,29.41,SE,144,0.0,0.0,15,0.00,,CLR,0.00,VWS V14.01,2013-06-17 23:43:00,
2013-06-17 19:48:00,77.9,26.6,29.41,SE,144,0.0,0.0,15,0.00,,CLR,0.00,VWS V14.01,2013-06-17 23:48:00,
2013-06-17 19:53:00,77.7,26.4,29.41,SE,144,0.0,0.0,15,0.00,,CLR,0.00,VWS V14.01,2013-06-17 23:53:00,
2013-06-17 19:58:00,77.4,26.1,29.41,SE,144,0.0,0.0,15,0.00,,CLR,0.00,VWS V14.01,2013-06-17 23:58:00,
2013-06-17 20:03:00,77.4,26.1,29.41,NNW,327,0.0,0.0,15,0.00,,CLR,0.00,VWS V14.01,2013-06-18 00:03:00,
2013-06-17 20:08:00,77.4,26.1,29.41,NNW,327,0.0,0.0,15,0.00,,CLR,0.00,VWS V14.01,2013-06-18 00:08:00,
2013-06-17 20:13:00,77.0,25.9,29.41,NNW,327,0.0,0.0,15,0.00,,CLR,0.00,VWS V14.01,2013-06-18 00:13:00,
2013-06-17 20:18:00,76.6,25.6,29.41,NNW,327,0.0,0.0,15,0.00,,CLR,0.00,VWS V14.01,2013-06-18 00:18:00,
2013-06-17 20:23:00,76.3,25.3,29.41,NW,304,0.0,0.0,15,0.00,,CLR,0.00,VWS V14.01,2013-06-18 00:23:00,
2013-06-17 20:28:00,76.1,25.1,29.41,West,276,0.0,0.0,15,0.00,,CLR,0.00,VWS V14.01,2013-06-18 00:28:00,
2013-06-17 20:33:00,75.7,24.9,29.41,West,276,0.0,0.0,15,0.00,,CLR,0.00,VWS V14.01,2013-06-18 00:33:00,
2013-06-17 20:38:00,75.6,24.7,29.41,West,276,0.0,0.0,15,0.00,,CLR,0.00,VWS V14.01,2013-06-18 00:38:00,
2013-06-17 20:43:00,75.2,24.4,29.41,West,276,0.0,0.0,15,0.00,,CLR,0.00,VWS V14.01,2013-06-18 00:43:00,
2013-06-17 20:48:00,74.7,25.5,29.41,West,276,0.0,0.0,16,0.00,,CLR,0.00,VWS V14.01,2013-06-18 00:48:00,
2013-06-17 20:53:00,73.9,25.0,29.44,SSE,160,0.0,0.0,16,0.00,,CLR,0.00,VWS V14.01,2013-06-18 00:53:00,
2013-06-17 20:58:00,73.4,27.4,29.44,SSE,160,0.0,0.0,18,0.00,,CLR,0.00,VWS V14.01,2013-06-18 00:58:00,
2013-06-17 21:03:00,72.9,28.2,29.44,SSE,160,0.0,0.0,19,0.00,,CLR,0.00,VWS V14.01,2013-06-18 01:03:00,
2013-06-17 21:08:00,72.5,27.9,29.44,SSE,160,0.0,0.0,19,0.00,,CLR,0.00,VWS V14.01,2013-06-18 01:08:00,
2013-06-17 21:13:00,72.0,29.9,29.44,SSE,160,0.0,0.0,21,0.00,,CLR,0.00,VWS V14.01,2013-06-18 01:13:00,
2013-06-17 21:18:00,71.6,29.6,29.44,SSE,160,0.0,0.0,21,0.00,,CLR,0.00,VWS V14.01,2013-06-18 01:18:00,
2013-06-17 21:23:00,71.2,30.5,29.44,SSE,160,0.0,0.0,22,0.00,,CLR,0.00,VWS V14.01,2013-06-18 01:23:00,
2013-06-17 21:28:00,71.1,30.3,29.44,SSE,160,0.0,0.0,22,0.00,,CLR,0.00,VWS V14.01,2013-06-18 01:28:00,
2013-06-17 21:33:00,70.7,31.1,29.44,SSE,156,0.0,0.0,23,0.00,,CLR,0.00,VWS V14.01,2013-06-18 01:33:00,
2013-06-17 21:38:00,70.3,30.8,29.44,SSE,156,0.0,0.0,23,0.00,,CLR,0.00,VWS V14.01,2013-06-18 01:38:00,
2013-06-17 21:43:00,70.2,30.7,29.44,SSE,156,0.0,0.0,23,0.00,,CLR,0.00,VWS V14.01,2013-06-18 01:43:00,
2013-06-17 21:48:00,69.8,30.4,29.44,SSE,156,0.0,0.0,23,0.00,,CLR,0.00,VWS V14.01,2013-06-18 01:48:00,
2013-06-17 21:53:00,69.6,31.3,29.44,SSE,156,0.0,0.0,24,0.00,,CLR,0.00,VWS V14.01,2013-06-18 01:53:00,
2013-06-17 21:58:00,69.4,31.1,29.44,SSE,156,0.0,0.0,24,0.00,,CLR,0.00,VWS V14.01,2013-06-18 01:58:00,
2013-06-17 22:03:00,69.1,30.8,29.44,SSE,156,0.0,0.0,24,0.00,,CLR,0.00,VWS V14.01,2013-06-18 02:03:00,
2013-06-17 22:08:00,68.9,31.7,29.44,SSE,156,0.0,0.0,25,0.00,,CLR,0.00,VWS V14.01,2013-06-18 02:08:00,
2013-06-17 22:13:00,68.7,31.5,29.44,SSE,156,0.0,0.0,25,0.00,,CLR,0.00,VWS V14.01,2013-06-18 02:13:00,
2013-06-17 22:18:00,68.5,31.4,29.44,SSE,156,0.0,0.0,25,0.00,,CLR,0.00,VWS V14.01,2013-06-18 02:18:00,
2013-06-17 22:23:00,68.5,32.3,29.44,SSE,156,0.0,0.0,26,0.00,,CLR,0.00,VWS V14.01,2013-06-18 02:23:00,
2013-06-17 22:28:00,68.4,32.2,29.44,SSE,156,0.0,0.0,26,0.00,,CLR,0.00,VWS V14.01,2013-06-18 02:28:00,
2013-06-17 22:33:00,68.4,32.2,29.44,SSE,156,0.0,0.0,26,0.00,,CLR,0.00,VWS V14.01,2013-06-18 02:33:00,
2013-06-17 22:38:00,68.2,32.0,29.44,SSE,156,0.0,0.0,26,0.00,,CLR,0.00,VWS V14.01,2013-06-18 02:38:00,
2013-06-17 22:43:00,68.0,31.9,29.44,SSE,156,0.0,0.0,26,0.00,,CLR,0.00,VWS V14.01,2013-06-18 02:43:00,
2013-06-17 22:48:00,67.8,32.7,29.44,SSE,156,0.0,0.0,27,0.00,,CLR,0.00,VWS V14.01,2013-06-18 02:48:00,
2013-06-17 22:53:00,67.6,33.4,29.44,SSE,156,0.0,0.0,28,0.00,,CLR,0.00,VWS V14.01,2013-06-18 02:53:00,
2013-06-17 22:58:00,67.5,34.1,29.44,NW,325,2.2,3.1,29,0.00,,CLR,0.00,VWS V14.01,2013-06-18 02:58:00,
2013-06-17 23:03:00,67.3,34.8,29.44,NW,325,0.0,0.0,30,0.00,,CLR,0.00,VWS V14.01,2013-06-18 03:03:00,
2013-06-17 23:08:00,67.1,34.7,29.44,NW,325,0.0,0.0,30,0.00,,CLR,0.00,VWS V14.01,2013-06-18 03:08:00,
2013-06-17 23:13:00,67.1,34.7,29.44,NW,325,0.0,0.0,30,0.00,,CLR,0.00,VWS V14.01,2013-06-18 03:13:00,
2013-06-17 23:18:00,66.9,34.5,29.44,NW,325,0.0,0.0,30,0.00,,CLR,0.00,VWS V14.01,2013-06-18 03:18:00,
2013-06-17 23:23:00,66.7,35.2,29.44,NW,325,0.0,0.0,31,0.00,,CLR,0.00,VWS V14.01,2013-06-18 03:23:00,
2013-06-17 23:28:00,66.6,36.6,29.44,NW,325,0.0,0.0,33,0.00,,CLR,0.00,VWS V14.01,2013-06-18 03:28:00,
2013-06-17 23:33:00,66.4,36.4,29.44,NW,325,0.0,0.0,33,0.00,,CLR,0.00,VWS V14.01,2013-06-18 03:33:00,
2013-06-17 23:38:00,66.2,36.3,29.44,NW,325,0.0,0.0,33,0.00,,CLR,0.00,VWS V14.01,2013-06-18 03:38:00,
2013-06-17 23:43:00,66.2,36.3,29.44,NW,325,0.0,0.0,33,0.00,,CLR,0.00,VWS V14.01,2013-06-18 03:43:00,
2013-06-17 23:48:00,66.2,36.3,29.44,NW,325,0.0,0.0,33,0.00,,CLR,0.00,VWS V14.01,2013-06-18 03:48:00,
2013-06-17 23:53:00,66.0,36.9,29.44,NW,325,0.0,0.0,34,0.00,,CLR,0.00,VWS V14.01,2013-06-18 03:53:00,
2013-06-17 23:58:00,66.0,36.9,29.44,NW,325,0.0,0.0,34,0.00,,CLR,0.00,VWS V14.01,2013-06-18 03:58:00,